Mancos, Colorado
Current Conditions -  °F | °C
As of 2:53 AM on Sunday 26 Oct 2014 (Local Time) from KCEZ Reporting Station
Scattered Clouds Scattered Clouds  
Wind Chill:   Ceiling: Unl
Heat Index:   Visibility: 10mi
Dew Point:   Wind: 6mph
Humidity: 68%   Direction: 70°ENE
Pressure: 30.17"   Gusts: NA
Location:  37.34°N, 108.29°W
Report Text: KCEZ 260853Z AUTO 07005KT 10SM SCT085 08/02 A3017 RMK AO2 SLP155 T00780022 55003
Loading
Personal Weather Stations






























Interactive Weather Map
Tropical Storm Tracking
New forecast layout! Learn more

10-Day Weather Forecast

Advertisements
Track Severe Weather on mobile